Terminal Aerodrome Forecast
Issued by NWS

Home | Current Version | Previous Version | Text Only | Print | Product List | Glossary On
Versions: 1 2 3 4 5 6 7 8 9 10 11 12 13 14 15 16
000
FTUS41 KPHI 051125
TAFPNE
TAF
KPNE 051125Z 0512/0612 32005KT P6SM BKN250
     FM051600 29010KT P6SM SCT250
     FM051900 28011G18KT P6SM SCT050
     FM060000 31008KT P6SM BKN060
     FM060200 34005KT P6SM FEW060=

USA.gov is the U.S. government's official web portal to all federal, state and local government web resources and services.